sensor_id;sensor_type;location;lat;lon;timestamp;temperature;humidity
22623;DHT22;11478;51.094;7.030;2024-02-26T00:01:57;6.70;99.90
22623;DHT22;11478;51.094;7.030;2024-02-26T00:04:23;6.60;99.90
22623;DHT22;11478;51.094;7.030;2024-02-26T00:06:49;6.60;99.90
22623;DHT22;11478;51.094;7.030;2024-02-26T00:09:17;6.60;99.90
22623;DHT22;11478;51.094;7.030;2024-02-26T00:11:42;6.50;99.90
22623;DHT22;11478;51.094;7.030;2024-02-26T00:14:08;6.50;99.90
22623;DHT22;11478;51.094;7.030;2024-02-26T00:16:40;6.40;99.90
22623;DHT22;11478;51.094;7.030;2024-02-26T00:19:07;6.40;99.90
22623;DHT22;11478;51.094;7.030;2024-02-26T00:21:34;6.40;99.90
22623;DHT22;11478;51.094;7.030;2024-02-26T00:23:59;6.30;99.90
22623;DHT22;11478;51.094;7.030;2024-02-26T00:26:26;6.30;99.90
22623;DHT22;11478;51.094;7.030;2024-02-26T00:28:52;6.30;99.90
22623;DHT22;11478;51.094;7.030;2024-02-26T00:31:36;6.20;99.90
22623;DHT22;11478;51.094;7.030;2024-02-26T00:34:03;6.20;99.90
22623;DHT22;11478;51.094;7.030;2024-02-26T00:36:44;6.20;99.90
22623;DHT22;11478;51.094;7.030;2024-02-26T00:39:28;6.10;99.90
22623;DHT22;11478;51.094;7.030;2024-02-26T00:41:54;6.10;99.90
22623;DHT22;11478;51.094;7.030;2024-02-26T00:44:20;6.00;99.90
22623;DHT22;11478;51.094;7.030;2024-02-26T00:46:46;6.00;99.90
22623;DHT22;11478;51.094;7.030;2024-02-26T00:49:21;6.00;99.90
22623;DHT22;11478;51.094;7.030;2024-02-26T00:51:47;6.00;99.90
22623;DHT22;11478;51.094;7.030;2024-02-26T00:54:30;5.90;99.90
22623;DHT22;11478;51.094;7.030;2024-02-26T00:56:56;5.90;99.90
22623;DHT22;11478;51.094;7.030;2024-02-26T00:59:27;5.90;99.90
22623;DHT22;11478;51.094;7.030;2024-02-26T01:01:53;5.90;99.90
22623;DHT22;11478;51.094;7.030;2024-02-26T01:04:18;6.00;99.90
22623;DHT22;11478;51.094;7.030;2024-02-26T01:06:44;6.00;99.90
22623;DHT22;11478;51.094;7.030;2024-02-26T01:09:19;5.90;99.90
22623;DHT22;11478;51.094;7.030;2024-02-26T01:11:45;6.00;99.90
22623;DHT22;11478;51.094;7.030;2024-02-26T01:14:15;6.00;99.90
22623;DHT22;11478;51.094;7.030;2024-02-26T01:16:41;6.00;99.90
22623;DHT22;11478;51.094;7.030;2024-02-26T01:19:32;6.00;99.90
22623;DHT22;11478;51.094;7.030;2024-02-26T01:21:58;6.10;99.90
22623;DHT22;11478;51.094;7.030;2024-02-26T01:24:52;6.10;99.90
22623;DHT22;11478;51.094;7.030;2024-02-26T01:27:18;6.20;99.90
22623;DHT22;11478;51.094;7.030;2024-02-26T01:30:06;6.20;99.90
22623;DHT22;11478;51.094;7.030;2024-02-26T01:32:32;6.20;99.90
22623;DHT22;11478;51.094;7.030;2024-02-26T01:35:11;6.30;99.90
22623;DHT22;11478;51.094;7.030;2024-02-26T01:37:37;6.30;99.90
22623;DHT22;11478;51.094;7.030;2024-02-26T01:40:04;6.30;99.90
22623;DHT22;11478;51.094;7.030;2024-02-26T01:42:34;6.20;99.90
22623;DHT22;11478;51.094;7.030;2024-02-26T01:45:01;6.20;99.90
22623;DHT22;11478;51.094;7.030;2024-02-26T01:47:35;6.20;99.90
22623;DHT22;11478;51.094;7.030;2024-02-26T01:50:00;6.20;99.90
22623;DHT22;11478;51.094;7.030;2024-02-26T01:52:26;6.20;99.90
22623;DHT22;11478;51.094;7.030;2024-02-26T01:54:52;6.20;99.90
22623;DHT22;11478;51.094;7.030;2024-02-26T01:57:22;6.10;99.90
22623;DHT22;11478;51.094;7.030;2024-02-26T01:59:48;6.10;99.90
22623;DHT22;11478;51.094;7.030;2024-02-26T02:02:15;6.10;99.90
22623;DHT22;11478;51.094;7.030;2024-02-26T02:04:45;6.10;99.90
22623;DHT22;11478;51.094;7.030;2024-02-26T02:07:11;6.00;99.90
22623;DHT22;11478;51.094;7.030;2024-02-26T02:09:38;6.00;99.90
22623;DHT22;11478;51.094;7.030;2024-02-26T02:12:06;6.00;99.90
22623;DHT22;11478;51.094;7.030;2024-02-26T02:14:32;5.90;99.90
22623;DHT22;11478;51.094;7.030;2024-02-26T02:16:59;5.90;99.90
22623;DHT22;11478;51.094;7.030;2024-02-26T02:19:24;5.90;99.90
22623;DHT22;11478;51.094;7.030;2024-02-26T02:22:03;5.80;99.90
22623;DHT22;11478;51.094;7.030;2024-02-26T02:24:28;5.80;99.90
22623;DHT22;11478;51.094;7.030;2024-02-26T02:26:56;5.80;99.90
22623;DHT22;11478;51.094;7.030;2024-02-26T02:29:22;5.80;99.90
22623;DHT22;11478;51.094;7.030;2024-02-26T02:31:49;5.80;99.90
22623;DHT22;11478;51.094;7.030;2024-02-26T02:34:15;5.70;99.90
22623;DHT22;11478;51.094;7.030;2024-02-26T02:36:54;5.80;99.90
22623;DHT22;11478;51.094;7.030;2024-02-26T02:39:21;5.80;99.90
22623;DHT22;11478;51.094;7.030;2024-02-26T02:45:16;5.80;99.90
22623;DHT22;11478;51.094;7.030;2024-02-26T02:47:42;5.80;99.90
22623;DHT22;11478;51.094;7.030;2024-02-26T02:50:09;5.80;99.90
22623;DHT22;11478;51.094;7.030;2024-02-26T02:52:35;5.80;99.90
22623;DHT22;11478;51.094;7.030;2024-02-26T02:55:01;5.80;99.90
22623;DHT22;11478;51.094;7.030;2024-02-26T02:57:32;5.80;99.90
22623;DHT22;11478;51.094;7.030;2024-02-26T02:59:58;5.80;99.90
22623;DHT22;11478;51.094;7.030;2024-02-26T03:02:27;5.80;99.90
22623;DHT22;11478;51.094;7.030;2024-02-26T03:04:55;5.80;99.90
22623;DHT22;11478;51.094;7.030;2024-02-26T03:07:21;5.80;99.90
22623;DHT22;11478;51.094;7.030;2024-02-26T03:09:48;5.80;99.90
22623;DHT22;11478;51.094;7.030;2024-02-26T03:12:13;5.80;99.90
22623;DHT22;11478;51.094;7.030;2024-02-26T03:14:44;5.80;99.90
22623;DHT22;11478;51.094;7.030;2024-02-26T03:17:09;5.80;99.90
22623;DHT22;11478;51.094;7.030;2024-02-26T03:19:40;5.80;99.90
22623;DHT22;11478;51.094;7.030;2024-02-26T03:22:07;5.80;99.90
22623;DHT22;11478;51.094;7.030;2024-02-26T03:24:34;5.80;99.90
22623;DHT22;11478;51.094;7.030;2024-02-26T03:27:00;5.80;99.90
22623;DHT22;11478;51.094;7.030;2024-02-26T03:29:32;5.80;99.90
22623;DHT22;11478;51.094;7.030;2024-02-26T03:31:58;5.80;99.90
22623;DHT22;11478;51.094;7.030;2024-02-26T03:34:50;5.80;99.90
22623;DHT22;11478;51.094;7.030;2024-02-26T03:37:19;5.80;99.90
22623;DHT22;11478;51.094;7.030;2024-02-26T03:39:45;5.80;99.90
22623;DHT22;11478;51.094;7.030;2024-02-26T03:42:12;5.80;99.90
22623;DHT22;11478;51.094;7.030;2024-02-26T03:44:38;5.80;99.90
22623;DHT22;11478;51.094;7.030;2024-02-26T03:47:04;5.80;99.90
22623;DHT22;11478;51.094;7.030;2024-02-26T03:49:30;5.80;99.90
22623;DHT22;11478;51.094;7.030;2024-02-26T03:51:55;5.80;99.90
22623;DHT22;11478;51.094;7.030;2024-02-26T03:54:22;5.80;99.90
22623;DHT22;11478;51.094;7.030;2024-02-26T03:56:48;5.80;99.90
22623;DHT22;11478;51.094;7.030;2024-02-26T03:59:20;5.80;99.90
22623;DHT22;11478;51.094;7.030;2024-02-26T04:01:47;5.80;99.90
22623;DHT22;11478;51.094;7.030;2024-02-26T04:04:26;5.80;99.90
22623;DHT22;11478;51.094;7.030;2024-02-26T04:06:52;5.80;99.90
22623;DHT22;11478;51.094;7.030;2024-02-26T04:09:24;5.80;99.90
22623;DHT22;11478;51.094;7.030;2024-02-26T04:11:50;5.80;99.90
22623;DHT22;11478;51.094;7.030;2024-02-26T04:14:17;5.80;99.90
22623;DHT22;11478;51.094;7.030;2024-02-26T04:16:43;5.80;99.90
22623;DHT22;11478;51.094;7.030;2024-02-26T04:19:23;5.80;99.90
22623;DHT22;11478;51.094;7.030;2024-02-26T04:21:49;5.80;99.90
22623;DHT22;11478;51.094;7.030;2024-02-26T04:24:15;5.80;99.90
22623;DHT22;11478;51.094;7.030;2024-02-26T04:26:41;5.80;99.90
22623;DHT22;11478;51.094;7.030;2024-02-26T04:29:07;5.90;99.90
22623;DHT22;11478;51.094;7.030;2024-02-26T04:31:33;5.90;99.90
22623;DHT22;11478;51.094;7.030;2024-02-26T04:33:59;5.80;99.90
22623;DHT22;11478;51.094;7.030;2024-02-26T04:36:29;5.80;99.90
22623;DHT22;11478;51.094;7.030;2024-02-26T04:38:54;5.80;99.90
22623;DHT22;11478;51.094;7.030;2024-02-26T04:41:23;5.80;99.90
22623;DHT22;11478;51.094;7.030;2024-02-26T04:43:49;5.80;99.90
22623;DHT22;11478;51.094;7.030;2024-02-26T04:46:43;5.80;99.90
22623;DHT22;11478;51.094;7.030;2024-02-26T04:49:09;5.80;99.90
22623;DHT22;11478;51.094;7.030;2024-02-26T04:51:34;5.70;99.90
22623;DHT22;11478;51.094;7.030;2024-02-26T04:54:00;5.70;99.90
22623;DHT22;11478;51.094;7.030;2024-02-26T04:56:27;5.70;99.90
22623;DHT22;11478;51.094;7.030;2024-02-26T04:58:53;5.70;99.90
22623;DHT22;11478;51.094;7.030;2024-02-26T05:01:19;5.70;99.90
22623;DHT22;11478;51.094;7.030;2024-02-26T05:03:45;5.70;99.90
22623;DHT22;11478;51.094;7.030;2024-02-26T05:06:11;5.70;99.90
22623;DHT22;11478;51.094;7.030;2024-02-26T05:08:39;5.70;99.90
22623;DHT22;11478;51.094;7.030;2024-02-26T05:11:05;5.70;99.90
22623;DHT22;11478;51.094;7.030;2024-02-26T05:13:32;5.70;99.90
22623;DHT22;11478;51.094;7.030;2024-02-26T05:15:58;5.70;99.90
22623;DHT22;11478;51.094;7.030;2024-02-26T05:21:15;5.70;99.90
22623;DHT22;11478;51.094;7.030;2024-02-26T05:23:42;5.60;99.90
22623;DHT22;11478;51.094;7.030;2024-02-26T05:26:09;5.60;99.90
22623;DHT22;11478;51.094;7.030;2024-02-26T05:28:35;5.60;99.90
22623;DHT22;11478;51.094;7.030;2024-02-26T05:31:02;5.60;99.90
22623;DHT22;11478;51.094;7.030;2024-02-26T05:33:29;5.60;99.90
22623;DHT22;11478;51.094;7.030;2024-02-26T05:35:54;5.60;99.90
22623;DHT22;11478;51.094;7.030;2024-02-26T05:38:21;5.60;99.90
22623;DHT22;11478;51.094;7.030;2024-02-26T05:40:47;5.60;99.90
22623;DHT22;11478;51.094;7.030;2024-02-26T05:43:14;5.50;99.90
22623;DHT22;11478;51.094;7.030;2024-02-26T05:45:44;5.50;99.90
22623;DHT22;11478;51.094;7.030;2024-02-26T05:48:10;5.50;99.90
22623;DHT22;11478;51.094;7.030;2024-02-26T05:50:36;5.50;99.90
22623;DHT22;11478;51.094;7.030;2024-02-26T05:53:02;5.50;99.90
22623;DHT22;11478;51.094;7.030;2024-02-26T05:55:28;5.50;99.90
22623;DHT22;11478;51.094;7.030;2024-02-26T05:57:54;5.50;99.90
22623;DHT22;11478;51.094;7.030;2024-02-26T06:00:20;5.50;99.90
22623;DHT22;11478;51.094;7.030;2024-02-26T06:02:46;5.50;99.90
22623;DHT22;11478;51.094;7.030;2024-02-26T06:05:18;5.50;99.90
22623;DHT22;11478;51.094;7.030;2024-02-26T06:07:44;5.50;99.90
22623;DHT22;11478;51.094;7.030;2024-02-26T06:10:18;5.50;99.90
22623;DHT22;11478;51.094;7.030;2024-02-26T06:12:47;5.50;99.90
22623;DHT22;11478;51.094;7.030;2024-02-26T06:15:15;5.50;99.90
22623;DHT22;11478;51.094;7.030;2024-02-26T06:17:41;5.50;99.90
22623;DHT22;11478;51.094;7.030;2024-02-26T06:20:07;5.50;99.90
22623;DHT22;11478;51.094;7.030;2024-02-26T06:22:38;5.50;99.90
22623;DHT22;11478;51.094;7.030;2024-02-26T06:25:04;5.50;99.90
22623;DHT22;11478;51.094;7.030;2024-02-26T06:27:30;5.50;99.90
22623;DHT22;11478;51.094;7.030;2024-02-26T06:29:56;5.50;99.90
22623;DHT22;11478;51.094;7.030;2024-02-26T06:32:22;5.50;99.90
22623;DHT22;11478;51.094;7.030;2024-02-26T06:34:55;5.50;99.90
22623;DHT22;11478;51.094;7.030;2024-02-26T06:37:22;5.50;99.90
22623;DHT22;11478;51.094;7.030;2024-02-26T06:39:48;5.50;99.90
22623;DHT22;11478;51.094;7.030;2024-02-26T06:42:14;5.50;99.90
22623;DHT22;11478;51.094;7.030;2024-02-26T06:44:40;5.50;99.90
22623;DHT22;11478;51.094;7.030;2024-02-26T06:47:05;5.50;99.90
22623;DHT22;11478;51.094;7.030;2024-02-26T06:49:31;5.40;99.90
22623;DHT22;11478;51.094;7.030;2024-02-26T06:51:57;5.50;99.90
22623;DHT22;11478;51.094;7.030;2024-02-26T06:54:35;5.50;99.90
22623;DHT22;11478;51.094;7.030;2024-02-26T06:57:01;5.50;99.90
22623;DHT22;11478;51.094;7.030;2024-02-26T06:59:28;5.50;99.90
22623;DHT22;11478;51.094;7.030;2024-02-26T07:01:53;5.50;99.90
22623;DHT22;11478;51.094;7.030;2024-02-26T07:04:20;5.50;99.90
22623;DHT22;11478;51.094;7.030;2024-02-26T07:06:46;5.50;99.90
22623;DHT22;11478;51.094;7.030;2024-02-26T07:09:14;5.50;99.90
22623;DHT22;11478;51.094;7.030;2024-02-26T07:11:40;5.50;99.90
22623;DHT22;11478;51.094;7.030;2024-02-26T07:14:10;5.50;99.90
22623;DHT22;11478;51.094;7.030;2024-02-26T07:16:38;5.50;99.90
22623;DHT22;11478;51.094;7.030;2024-02-26T07:19:04;5.50;99.90
22623;DHT22;11478;51.094;7.030;2024-02-26T07:21:30;5.50;99.90
22623;DHT22;11478;51.094;7.030;2024-02-26T07:23:56;5.50;99.90
22623;DHT22;11478;51.094;7.030;2024-02-26T07:26:23;5.50;99.90
22623;DHT22;11478;51.094;7.030;2024-02-26T07:28:50;5.50;99.90
22623;DHT22;11478;51.094;7.030;2024-02-26T07:31:19;5.50;99.90
22623;DHT22;11478;51.094;7.030;2024-02-26T07:33:45;5.50;99.90
22623;DHT22;11478;51.094;7.030;2024-02-26T07:36:14;5.50;99.90
22623;DHT22;11478;51.094;7.030;2024-02-26T07:38:40;5.50;99.90
22623;DHT22;11478;51.094;7.030;2024-02-26T07:41:06;5.50;99.90
22623;DHT22;11478;51.094;7.030;2024-02-26T07:43:35;5.50;99.90
22623;DHT22;11478;51.094;7.030;2024-02-26T07:46:01;5.50;99.90
22623;DHT22;11478;51.094;7.030;2024-02-26T07:48:28;5.50;99.90
22623;DHT22;11478;51.094;7.030;2024-02-26T07:50:57;5.50;99.90
22623;DHT22;11478;51.094;7.030;2024-02-26T07:53:28;5.50;99.90
22623;DHT22;11478;51.094;7.030;2024-02-26T07:55:56;5.60;99.90
22623;DHT22;11478;51.094;7.030;2024-02-26T07:58:23;5.60;99.90
22623;DHT22;11478;51.094;7.030;2024-02-26T08:00:49;5.60;99.90
22623;DHT22;11478;51.094;7.030;2024-02-26T08:03:15;5.60;99.90
22623;DHT22;11478;51.094;7.030;2024-02-26T08:05:41;5.60;99.90
22623;DHT22;11478;51.094;7.030;2024-02-26T08:08:16;5.60;99.90
22623;DHT22;11478;51.094;7.030;2024-02-26T08:10:42;5.60;99.90
22623;DHT22;11478;51.094;7.030;2024-02-26T08:13:19;5.70;99.90
22623;DHT22;11478;51.094;7.030;2024-02-26T08:15:44;5.60;99.90
22623;DHT22;11478;51.094;7.030;2024-02-26T08:18:29;5.60;99.90
22623;DHT22;11478;51.094;7.030;2024-02-26T08:20:57;5.60;99.90
22623;DHT22;11478;51.094;7.030;2024-02-26T08:23:23;5.60;99.90
22623;DHT22;11478;51.094;7.030;2024-02-26T08:25:50;5.60;99.90
22623;DHT22;11478;51.094;7.030;2024-02-26T08:28:16;5.60;99.90
22623;DHT22;11478;51.094;7.030;2024-02-26T08:30:43;5.60;99.90
22623;DHT22;11478;51.094;7.030;2024-02-26T08:33:11;5.60;99.90
22623;DHT22;11478;51.094;7.030;2024-02-26T08:35:37;5.60;99.90
22623;DHT22;11478;51.094;7.030;2024-02-26T08:38:05;5.60;99.90
22623;DHT22;11478;51.094;7.030;2024-02-26T08:40:32;5.60;99.90
22623;DHT22;11478;51.094;7.030;2024-02-26T08:42:57;5.60;99.90
22623;DHT22;11478;51.094;7.030;2024-02-26T08:45:30;5.60;99.90
22623;DHT22;11478;51.094;7.030;2024-02-26T08:47:59;5.60;99.90
22623;DHT22;11478;51.094;7.030;2024-02-26T08:50:28;5.60;99.90
22623;DHT22;11478;51.094;7.030;2024-02-26T08:52:54;5.60;99.90
22623;DHT22;11478;51.094;7.030;2024-02-26T08:55:20;5.70;99.90
22623;DHT22;11478;51.094;7.030;2024-02-26T08:57:46;5.70;99.90
22623;DHT22;11478;51.094;7.030;2024-02-26T09:00:29;5.70;99.90
22623;DHT22;11478;51.094;7.030;2024-02-26T09:02:55;5.70;99.90
22623;DHT22;11478;51.094;7.030;2024-02-26T09:05:22;5.70;99.90
22623;DHT22;11478;51.094;7.030;2024-02-26T09:07:48;5.70;99.90
22623;DHT22;11478;51.094;7.030;2024-02-26T09:10:18;5.70;99.90
22623;DHT22;11478;51.094;7.030;2024-02-26T09:12:44;5.70;99.90
22623;DHT22;11478;51.094;7.030;2024-02-26T09:15:09;5.70;99.90
22623;DHT22;11478;51.094;7.030;2024-02-26T09:17:35;5.70;99.90
22623;DHT22;11478;51.094;7.030;2024-02-26T09:20:05;5.70;99.90
22623;DHT22;11478;51.094;7.030;2024-02-26T09:33:14;5.80;99.90
22623;DHT22;11478;51.094;7.030;2024-02-26T09:35:43;5.80;99.90
22623;DHT22;11478;51.094;7.030;2024-02-26T09:38:10;5.80;99.90
22623;DHT22;11478;51.094;7.030;2024-02-26T09:40:36;5.90;99.90
22623;DHT22;11478;51.094;7.030;2024-02-26T09:43:05;5.90;99.90
22623;DHT22;11478;51.094;7.030;2024-02-26T09:45:33;5.80;99.90
22623;DHT22;11478;51.094;7.030;2024-02-26T09:48:00;5.80;99.90
22623;DHT22;11478;51.094;7.030;2024-02-26T09:50:30;5.80;99.90
22623;DHT22;11478;51.094;7.030;2024-02-26T09:52:56;5.80;99.90
22623;DHT22;11478;51.094;7.030;2024-02-26T09:55:33;5.80;99.90
22623;DHT22;11478;51.094;7.030;2024-02-26T09:57:59;5.80;99.90
22623;DHT22;11478;51.094;7.030;2024-02-26T10:00:26;5.80;99.90
22623;DHT22;11478;51.094;7.030;2024-02-26T10:02:56;5.80;99.90
22623;DHT22;11478;51.094;7.030;2024-02-26T10:05:24;5.80;99.90
22623;DHT22;11478;51.094;7.030;2024-02-26T10:07:51;5.80;99.90
22623;DHT22;11478;51.094;7.030;2024-02-26T10:10:25;5.90;99.90
22623;DHT22;11478;51.094;7.030;2024-02-26T10:12:53;5.90;99.90
22623;DHT22;11478;51.094;7.030;2024-02-26T10:15:19;5.90;99.90
22623;DHT22;11478;51.094;7.030;2024-02-26T10:18:04;5.90;99.90
22623;DHT22;11478;51.094;7.030;2024-02-26T10:20:58;5.90;99.90
22623;DHT22;11478;51.094;7.030;2024-02-26T10:23:26;5.90;99.90
22623;DHT22;11478;51.094;7.030;2024-02-26T10:25:57;5.90;99.90
22623;DHT22;11478;51.094;7.030;2024-02-26T10:28:23;5.90;99.90
22623;DHT22;11478;51.094;7.030;2024-02-26T10:30:52;5.90;99.90
22623;DHT22;11478;51.094;7.030;2024-02-26T10:33:27;6.00;99.90
22623;DHT22;11478;51.094;7.030;2024-02-26T10:35:55;6.00;99.90
22623;DHT22;11478;51.094;7.030;2024-02-26T10:38:21;6.00;99.90
22623;DHT22;11478;51.094;7.030;2024-02-26T10:40:54;6.10;99.90
22623;DHT22;11478;51.094;7.030;2024-02-26T10:43:32;6.10;99.90
22623;DHT22;11478;51.094;7.030;2024-02-26T10:45:58;6.10;99.90
22623;DHT22;11478;51.094;7.030;2024-02-26T10:48:36;6.10;99.90
22623;DHT22;11478;51.094;7.030;2024-02-26T10:51:06;6.20;99.90
22623;DHT22;11478;51.094;7.030;2024-02-26T10:53:35;6.20;99.90
22623;DHT22;11478;51.094;7.030;2024-02-26T10:56:05;6.20;99.90
22623;DHT22;11478;51.094;7.030;2024-02-26T10:58:32;6.20;99.90
22623;DHT22;11478;51.094;7.030;2024-02-26T11:01:03;6.20;99.90
22623;DHT22;11478;51.094;7.030;2024-02-26T11:03:33;6.30;99.90
22623;DHT22;11478;51.094;7.030;2024-02-26T11:06:05;6.40;99.90
22623;DHT22;11478;51.094;7.030;2024-02-26T11:08:35;6.40;99.90
22623;DHT22;11478;51.094;7.030;2024-02-26T11:11:01;6.50;99.90
22623;DHT22;11478;51.094;7.030;2024-02-26T11:13:31;6.50;99.90
22623;DHT22;11478;51.094;7.030;2024-02-26T11:15:57;6.50;99.90
22623;DHT22;11478;51.094;7.030;2024-02-26T11:18:27;6.60;99.90
22623;DHT22;11478;51.094;7.030;2024-02-26T11:20:57;6.60;99.90
22623;DHT22;11478;51.094;7.030;2024-02-26T11:23:30;6.60;99.90
22623;DHT22;11478;51.094;7.030;2024-02-26T11:26:01;6.60;99.90
22623;DHT22;11478;51.094;7.030;2024-02-26T11:32:12;6.60;99.90
22623;DHT22;11478;51.094;7.030;2024-02-26T11:34:42;6.60;99.90
22623;DHT22;11478;51.094;7.030;2024-02-26T11:37:54;6.60;99.90
22623;DHT22;11478;51.094;7.030;2024-02-26T11:40:31;6.60;99.90
22623;DHT22;11478;51.094;7.030;2024-02-26T11:46:32;6.60;99.90
22623;DHT22;11478;51.094;7.030;2024-02-26T11:51:58;6.60;99.90
22623;DHT22;11478;51.094;7.030;2024-02-26T11:54:55;6.60;99.90
22623;DHT22;11478;51.094;7.030;2024-02-26T11:58:01;6.70;99.90
22623;DHT22;11478;51.094;7.030;2024-02-26T12:00:33;6.70;99.90
22623;DHT22;11478;51.094;7.030;2024-02-26T12:03:09;6.70;99.90
22623;DHT22;11478;51.094;7.030;2024-02-26T12:05:37;6.70;99.90
22623;DHT22;11478;51.094;7.030;2024-02-26T12:08:15;6.70;99.90
22623;DHT22;11478;51.094;7.030;2024-02-26T12:10:50;6.70;99.90
22623;DHT22;11478;51.094;7.030;2024-02-26T12:16:38;6.80;99.90
22623;DHT22;11478;51.094;7.030;2024-02-26T12:19:06;6.80;99.90
22623;DHT22;11478;51.094;7.030;2024-02-26T12:21:40;6.80;99.90
22623;DHT22;11478;51.094;7.030;2024-02-26T12:24:26;6.90;99.90
22623;DHT22;11478;51.094;7.030;2024-02-26T12:26:55;6.90;99.90
22623;DHT22;11478;51.094;7.030;2024-02-26T12:29:25;7.00;99.90
22623;DHT22;11478;51.094;7.030;2024-02-26T12:31:54;7.00;99.90
22623;DHT22;11478;51.094;7.030;2024-02-26T12:34:23;7.00;99.90
22623;DHT22;11478;51.094;7.030;2024-02-26T12:36:49;7.00;99.90
22623;DHT22;11478;51.094;7.030;2024-02-26T12:39:16;7.00;99.90
22623;DHT22;11478;51.094;7.030;2024-02-26T12:41:42;7.10;99.90
22623;DHT22;11478;51.094;7.030;2024-02-26T12:44:18;7.00;99.90
22623;DHT22;11478;51.094;7.030;2024-02-26T12:46:44;7.10;99.90
22623;DHT22;11478;51.094;7.030;2024-02-26T12:49:15;7.10;99.90
22623;DHT22;11478;51.094;7.030;2024-02-26T12:51:47;7.10;99.90
22623;DHT22;11478;51.094;7.030;2024-02-26T12:54:21;7.00;99.90
22623;DHT22;11478;51.094;7.030;2024-02-26T12:56:48;7.00;99.90
22623;DHT22;11478;51.094;7.030;2024-02-26T12:59:14;7.10;99.90
22623;DHT22;11478;51.094;7.030;2024-02-26T13:01:45;7.10;99.90
22623;DHT22;11478;51.094;7.030;2024-02-26T13:04:13;7.10;99.90
22623;DHT22;11478;51.094;7.030;2024-02-26T13:06:39;7.10;99.90
22623;DHT22;11478;51.094;7.030;2024-02-26T13:09:06;7.10;99.90
22623;DHT22;11478;51.094;7.030;2024-02-26T13:11:31;7.10;99.90
22623;DHT22;11478;51.094;7.030;2024-02-26T13:14:00;7.10;99.90
22623;DHT22;11478;51.094;7.030;2024-02-26T13:16:27;7.10;99.90
22623;DHT22;11478;51.094;7.030;2024-02-26T13:19:13;7.20;99.90
22623;DHT22;11478;51.094;7.030;2024-02-26T13:21:39;7.20;99.90
22623;DHT22;11478;51.094;7.030;2024-02-26T13:24:06;7.20;99.90
22623;DHT22;11478;51.094;7.030;2024-02-26T13:26:32;7.20;99.90
22623;DHT22;11478;51.094;7.030;2024-02-26T13:29:09;7.20;99.90
22623;DHT22;11478;51.094;7.030;2024-02-26T13:32:00;7.20;99.90
22623;DHT22;11478;51.094;7.030;2024-02-26T13:34:36;7.20;99.90
22623;DHT22;11478;51.094;7.030;2024-02-26T13:37:02;7.20;99.90
22623;DHT22;11478;51.094;7.030;2024-02-26T13:39:38;7.30;99.90
22623;DHT22;11478;51.094;7.030;2024-02-26T13:42:04;7.30;99.90
22623;DHT22;11478;51.094;7.030;2024-02-26T13:44:39;7.30;99.90
22623;DHT22;11478;51.094;7.030;2024-02-26T13:47:06;7.30;99.90
22623;DHT22;11478;51.094;7.030;2024-02-26T13:49:38;7.30;99.90
22623;DHT22;11478;51.094;7.030;2024-02-26T13:52:04;7.40;99.90
22623;DHT22;11478;51.094;7.030;2024-02-26T13:54:41;7.50;99.90
22623;DHT22;11478;51.094;7.030;2024-02-26T13:57:07;7.50;99.90
22623;DHT22;11478;51.094;7.030;2024-02-26T13:59:34;7.50;99.90
22623;DHT22;11478;51.094;7.030;2024-02-26T14:02:00;7.40;99.90
22623;DHT22;11478;51.094;7.030;2024-02-26T14:04:26;7.50;99.90
22623;DHT22;11478;51.094;7.030;2024-02-26T14:06:57;7.50;99.90
22623;DHT22;11478;51.094;7.030;2024-02-26T14:09:23;7.50;99.90
22623;DHT22;11478;51.094;7.030;2024-02-26T14:11:49;7.50;99.90
22623;DHT22;11478;51.094;7.030;2024-02-26T14:14:31;7.50;99.90
22623;DHT22;11478;51.094;7.030;2024-02-26T14:17:01;7.50;99.90
22623;DHT22;11478;51.094;7.030;2024-02-26T14:19:30;7.60;99.90
22623;DHT22;11478;51.094;7.030;2024-02-26T14:21:56;7.60;99.90
22623;DHT22;11478;51.094;7.030;2024-02-26T14:24:30;7.70;99.90
22623;DHT22;11478;51.094;7.030;2024-02-26T14:26:56;7.70;99.90
22623;DHT22;11478;51.094;7.030;2024-02-26T14:29:30;7.70;99.90
22623;DHT22;11478;51.094;7.030;2024-02-26T14:32:05;7.80;99.90
22623;DHT22;11478;51.094;7.030;2024-02-26T14:34:31;7.70;99.90
22623;DHT22;11478;51.094;7.030;2024-02-26T14:36:57;7.70;99.90
22623;DHT22;11478;51.094;7.030;2024-02-26T14:39:23;7.70;99.90
22623;DHT22;11478;51.094;7.030;2024-02-26T14:41:51;7.70;99.90
22623;DHT22;11478;51.094;7.030;2024-02-26T14:44:19;7.70;99.90
22623;DHT22;11478;51.094;7.030;2024-02-26T14:46:45;7.70;99.90
22623;DHT22;11478;51.094;7.030;2024-02-26T14:49:10;7.70;99.90
22623;DHT22;11478;51.094;7.030;2024-02-26T14:51:39;7.70;99.90
22623;DHT22;11478;51.094;7.030;2024-02-26T14:54:05;7.70;99.90
22623;DHT22;11478;51.094;7.030;2024-02-26T14:56:32;7.70;99.90
22623;DHT22;11478;51.094;7.030;2024-02-26T14:59:01;7.70;99.90
22623;DHT22;11478;51.094;7.030;2024-02-26T15:01:27;7.70;99.90
22623;DHT22;11478;51.094;7.030;2024-02-26T15:03:52;7.60;99.90
22623;DHT22;11478;51.094;7.030;2024-02-26T15:06:23;7.70;99.90
22623;DHT22;11478;51.094;7.030;2024-02-26T15:08:49;7.60;99.90
22623;DHT22;11478;51.094;7.030;2024-02-26T15:11:15;7.60;99.90
22623;DHT22;11478;51.094;7.030;2024-02-26T15:13:42;7.60;99.90
22623;DHT22;11478;51.094;7.030;2024-02-26T15:16:19;7.60;99.90
22623;DHT22;11478;51.094;7.030;2024-02-26T15:18:46;7.60;99.90
22623;DHT22;11478;51.094;7.030;2024-02-26T15:21:12;7.50;99.90
22623;DHT22;11478;51.094;7.030;2024-02-26T15:23:42;7.50;99.90
22623;DHT22;11478;51.094;7.030;2024-02-26T15:26:09;7.60;99.90
22623;DHT22;11478;51.094;7.030;2024-02-26T15:28:35;7.60;99.90
22623;DHT22;11478;51.094;7.030;2024-02-26T15:31:04;7.60;99.90
22623;DHT22;11478;51.094;7.030;2024-02-26T15:33:32;7.60;99.90
22623;DHT22;11478;51.094;7.030;2024-02-26T15:35:58;7.60;99.90
22623;DHT22;11478;51.094;7.030;2024-02-26T15:38:24;7.60;99.90
22623;DHT22;11478;51.094;7.030;2024-02-26T15:40:50;7.50;99.90
22623;DHT22;11478;51.094;7.030;2024-02-26T15:43:16;7.50;99.90
22623;DHT22;11478;51.094;7.030;2024-02-26T15:45:42;7.40;99.90
22623;DHT22;11478;51.094;7.030;2024-02-26T15:48:08;7.30;99.90
22623;DHT22;11478;51.094;7.030;2024-02-26T15:50:35;7.40;99.90
22623;DHT22;11478;51.094;7.030;2024-02-26T15:53:04;7.30;99.90
22623;DHT22;11478;51.094;7.030;2024-02-26T15:56:08;7.30;99.90
22623;DHT22;11478;51.094;7.030;2024-02-26T15:58:47;7.30;99.90
22623;DHT22;11478;51.094;7.030;2024-02-26T16:08:03;7.30;99.90
22623;DHT22;11478;51.094;7.030;2024-02-26T16:10:43;7.30;99.90
22623;DHT22;11478;51.094;7.030;2024-02-26T16:13:10;7.30;99.90
22623;DHT22;11478;51.094;7.030;2024-02-26T16:16:01;7.30;99.90
22623;DHT22;11478;51.094;7.030;2024-02-26T16:18:35;7.20;99.90
22623;DHT22;11478;51.094;7.030;2024-02-26T16:21:08;7.20;99.90
22623;DHT22;11478;51.094;7.030;2024-02-26T16:23:38;7.20;99.90
22623;DHT22;11478;51.094;7.030;2024-02-26T16:26:07;7.20;99.90
22623;DHT22;11478;51.094;7.030;2024-02-26T16:28:36;7.20;99.90
22623;DHT22;11478;51.094;7.030;2024-02-26T16:31:05;7.20;99.90
22623;DHT22;11478;51.094;7.030;2024-02-26T16:33:34;7.30;99.90
22623;DHT22;11478;51.094;7.030;2024-02-26T16:36:03;7.20;99.90